Time;durP1;ratioP1;P1;durP2;ratioP2;P2;SDS_P1;SDS_P2;PMS_P1;PMS_P2;Temp;Humidity;BMP_temperature;BMP_pressure;BME280_temperature;BME280_humidity;BME280_pressure;Samples;Min_cycle;Max_cycle;Signal;HPM_P1;HPM_P2
2022/08/26 00:02:14;;;;;;;43.63;37.58;;;22.40;85.70;;;;;;5091039;28;20072;-46
2022/08/26 00:04:41;;;;;;;40.85;36.13;;;22.30;86.10;;;;;;5091429;28;20075;-48
2022/08/26 00:07:08;;;;;;;41.97;33.72;;;22.30;86.00;;;;;;5081189;28;20053;-47
2022/08/26 00:09:35;;;;;;;36.88;31.58;;;22.30;86.40;;;;;;5076045;28;20143;-48
2022/08/26 00:12:01;;;;;;;37.85;34.05;;;22.20;86.20;;;;;;5090345;28;20079;-46
2022/08/26 00:14:30;;;;;;;37.40;33.42;;;22.20;86.40;;;;;;5092790;28;20090;-46
2022/08/26 00:16:57;;;;;;;42.78;34.70;;;22.20;86.80;;;;;;5087223;28;20131;-45
2022/08/26 00:19:24;;;;;;;50.33;42.92;;;22.10;87.30;;;;;;5092286;28;20484;-46
2022/08/26 00:21:50;;;;;;;45.97;39.72;;;22.10;88.80;;;;;;5096576;28;20044;-51
2022/08/26 00:24:17;;;;;;;39.70;35.40;;;22.10;89.00;;;;;;5094980;28;20048;-49
2022/08/26 00:26:44;;;;;;;39.88;35.47;;;22.10;89.20;;;;;;5078567;28;20574;-50
2022/08/26 00:29:11;;;;;;;48.90;42.42;;;22.00;89.30;;;;;;5067681;28;20122;-46
2022/08/26 00:31:39;;;;;;;47.13;38.95;;;22.00;90.30;;;;;;5087390;28;20105;-49
2022/08/26 00:34:06;;;;;;;56.92;47.33;;;22.00;90.30;;;;;;5091027;28;20048;-50
2022/08/26 00:36:32;;;;;;;50.83;42.80;;;21.90;91.00;;;;;;5089939;28;20124;-48
2022/08/26 00:38:59;;;;;;;57.33;43.95;;;21.90;91.90;;;;;;5073684;28;20055;-45
2022/08/26 00:41:26;;;;;;;50.97;43.20;;;21.80;92.50;;;;;;5070117;28;20144;-48
2022/08/26 00:43:53;;;;;;;51.42;40.58;;;21.80;93.00;;;;;;5092598;28;20105;-45
2022/08/26 00:46:21;;;;;;;46.22;40.42;;;21.80;93.50;;;;;;5091923;28;20079;-49
2022/08/26 00:48:50;;;;;;;43.72;37.10;;;21.80;94.10;;;;;;5087426;28;20055;-49
2022/08/26 00:51:18;;;;;;;45.45;37.33;;;21.80;94.30;;;;;;5091375;28;20076;-50
2022/08/26 00:53:48;;;;;;;59.40;44.83;;;21.80;94.70;;;;;;5070892;28;20044;-47
2022/08/26 00:56:18;;;;;;;55.75;41.70;;;21.80;95.60;;;;;;5093806;28;20072;-49
2022/08/26 00:58:46;;;;;;;54.15;39.92;;;21.80;96.20;;;;;;5094134;28;20044;-49
2022/08/26 01:01:13;;;;;;;48.63;36.72;;;21.80;96.50;;;;;;5090049;28;20084;-48
2022/08/26 01:03:40;;;;;;;47.80;32.17;;;21.70;96.70;;;;;;5095016;28;20579;-45
2022/08/26 01:06:08;;;;;;;45.88;35.80;;;21.80;96.50;;;;;;5095177;28;20126;-47
2022/08/26 01:08:35;;;;;;;43.42;33.25;;;21.80;96.90;;;;;;5094129;28;20044;-44
2022/08/26 01:11:02;;;;;;;44.88;35.70;;;21.80;97.10;;;;;;5094044;28;20123;-44
2022/08/26 01:13:29;;;;;;;39.50;31.75;;;21.80;97.50;;;;;;5098346;28;20083;-49
2022/08/26 01:15:57;;;;;;;45.78;35.22;;;21.80;97.60;;;;;;5094214;28;20127;-48
2022/08/26 01:18:24;;;;;;;43.55;33.97;;;21.80;98.00;;;;;;5094856;28;20091;-48
2022/08/26 01:20:55;;;;;;;37.17;31.52;;;21.80;98.30;;;;;;5093083;28;20049;-49
2022/08/26 01:23:23;;;;;;;43.35;33.55;;;21.70;98.30;;;;;;5079048;28;20139;-51
2022/08/26 01:25:52;;;;;;;41.92;31.08;;;21.80;98.50;;;;;;5097245;28;20570;-47
2022/08/26 01:28:21;;;;;;;45.75;32.30;;;21.80;98.50;;;;;;5102833;28;20131;-47
2022/08/26 01:30:48;;;;;;;41.83;31.45;;;21.80;98.80;;;;;;5091595;28;20048;-41
2022/08/26 01:33:17;;;;;;;51.30;32.53;;;21.80;98.90;;;;;;5094885;28;20048;-48
2022/08/26 01:35:44;;;;;;;43.42;33.88;;;21.70;99.10;;;;;;5097027;28;20526;-48
2022/08/26 01:38:11;;;;;;;51.38;29.42;;;21.70;99.20;;;;;;5093782;28;20072;-46
2022/08/26 01:40:42;;;;;;;43.00;30.00;;;21.80;99.10;;;;;;5093376;28;20040;-47
2022/08/26 01:43:13;;;;;;;37.38;28.45;;;21.80;99.20;;;;;;5067309;28;20051;-51
2022/08/26 01:45:40;;;;;;;41.83;28.90;;;21.80;99.30;;;;;;5085270;28;20476;-38
2022/08/26 01:48:10;;;;;;;40.47;29.23;;;21.80;99.30;;;;;;5097303;28;20071;-49
2022/08/26 01:50:37;;;;;;;43.85;29.38;;;21.80;99.80;;;;;;5098469;28;20126;-50
2022/08/26 01:53:06;;;;;;;45.45;30.67;;;21.80;99.50;;;;;;5076401;28;20119;-46
2022/08/26 01:55:33;;;;;;;40.10;29.63;;;21.70;99.80;;;;;;5091681;28;20047;-50
2022/08/26 01:58:03;;;;;;;41.08;28.55;;;21.80;99.80;;;;;;5091402;28;20052;-50
2022/08/26 02:00:30;;;;;;;43.83;29.63;;;21.70;99.80;;;;;;5093832;28;20109;-49
2022/08/26 02:05:37;;;;;;;37.20;26.07;;;21.70;99.90;;;;;;5093106;28;20059;-47
2022/08/26 02:08:04;;;;;;;41.08;25.50;;;21.70;99.70;;;;;;5065617;28;20108;-46
2022/08/26 02:10:31;;;;;;;44.20;28.13;;;21.70;99.60;;;;;;5093546;28;20082;-48
2022/08/26 02:12:58;;;;;;;43.55;27.58;;;21.70;99.80;;;;;;5090886;28;20503;-43
2022/08/26 02:15:26;;;;;;;39.88;26.50;;;21.70;99.90;;;;;;5087164;28;20590;-48
2022/08/26 02:17:53;;;;;;;35.58;25.38;;;21.70;99.90;;;;;;5076081;28;20488;-44
2022/08/26 02:20:20;;;;;;;41.42;27.48;;;21.70;99.90;;;;;;5075213;28;20084;-49
2022/08/26 02:22:46;;;;;;;34.47;24.80;;;21.70;99.90;;;;;;5093990;28;20084;-42
2022/08/26 02:25:17;;;;;;;30.50;23.27;;;21.70;99.90;;;;;;5075735;28;20139;-47
2022/08/26 02:27:44;;;;;;;42.33;26.85;;;21.70;99.80;;;;;;5109598;28;20044;-49
2022/08/26 02:30:13;;;;;;;37.92;27.08;;;21.70;99.90;;;;;;5105718;28;20044;-49
2022/08/26 02:32:41;;;;;;;35.03;25.02;;;21.60;99.90;;;;;;5095527;28;20494;-47
2022/08/26 02:35:08;;;;;;;31.10;20.98;;;21.60;99.90;;;;;;5093146;28;20088;-39
2022/08/26 02:37:35;;;;;;;35.33;23.50;;;21.60;99.90;;;;;;5113648;28;20126;-46
2022/08/26 02:40:02;;;;;;;29.63;20.92;;;21.60;99.90;;;;;;5090578;28;20047;-46
2022/08/26 02:42:29;;;;;;;38.10;23.40;;;21.60;99.80;;;;;;5093546;28;20083;-49
2022/08/26 02:44:56;;;;;;;37.33;22.55;;;21.60;99.90;;;;;;5093842;28;20476;-47
2022/08/26 02:47:24;;;;;;;35.90;23.65;;;21.60;99.90;;;;;;5092872;28;20084;-45
2022/08/26 02:49:52;;;;;;;31.65;19.63;;;21.60;99.90;;;;;;5075495;28;20517;-44
2022/08/26 02:52:19;;;;;;;30.95;20.25;;;21.60;99.90;;;;;;5075748;28;20134;-48
2022/08/26 02:54:46;;;;;;;32.20;20.08;;;21.60;99.90;;;;;;5093294;28;20130;-47
2022/08/26 02:57:14;;;;;;;28.17;18.95;;;21.60;99.90;;;;;;5093412;28;20054;-48
2022/08/26 02:59:40;;;;;;;28.27;19.85;;;21.60;99.90;;;;;;5075086;28;20055;-46
2022/08/26 03:02:09;;;;;;;31.98;17.63;;;21.60;99.90;;;;;;5109483;28;20471;-45
2022/08/26 03:04:36;;;;;;;32.92;17.33;;;21.60;99.90;;;;;;5109958;28;20048;-48
2022/08/26 03:07:04;;;;;;;36.28;19.00;;;21.50;99.90;;;;;;5093265;28;20092;-49
2022/08/26 03:09:31;;;;;;;35.05;18.67;;;21.50;99.90;;;;;;5092942;28;20103;-45
2022/08/26 03:11:58;;;;;;;24.42;17.08;;;21.50;99.90;;;;;;5092349;28;20124;-49
2022/08/26 03:14:25;;;;;;;28.80;17.77;;;21.50;99.90;;;;;;5093535;28;20135;-45
2022/08/26 03:16:53;;;;;;;23.13;14.80;;;21.50;99.90;;;;;;5092911;28;20048;-50
2022/08/26 03:19:20;;;;;;;34.38;19.25;;;21.50;99.90;;;;;;5092592;28;20054;-49
2022/08/26 03:21:46;;;;;;;28.25;17.10;;;21.50;99.90;;;;;;5093104;28;20080;-46
2022/08/26 03:24:16;;;;;;;30.15;18.20;;;21.50;99.90;;;;;;5092208;28;20083;-43
2022/08/26 03:26:42;;;;;;;28.38;16.17;;;21.50;99.90;;;;;;5101998;28;20055;-47
2022/08/26 03:31:56;;;;;;;34.47;19.75;;;21.50;99.90;;;;;;5080830;28;20075;-47
2022/08/26 03:34:23;;;;;;;24.58;15.48;;;21.50;99.90;;;;;;5097666;28;20092;-47
2022/08/26 03:36:50;;;;;;;31.02;17.50;;;21.50;99.90;;;;;;5085496;28;20095;-48
2022/08/26 03:39:18;;;;;;;35.13;17.58;;;21.50;99.90;;;;;;5092893;28;20048;-45
2022/08/26 03:41:45;;;;;;;29.35;14.75;;;21.50;99.90;;;;;;5094766;28;20118;-51
2022/08/26 03:44:12;;;;;;;32.33;16.75;;;21.50;99.90;;;;;;5105472;28;20139;-47
2022/08/26 03:46:39;;;;;;;25.95;17.23;;;21.50;99.90;;;;;;5086827;28;20076;-48
2022/08/26 03:49:06;;;;;;;30.67;15.63;;;21.50;99.90;;;;;;5102119;28;20048;-51
2022/08/26 03:51:33;;;;;;;27.17;13.20;;;21.50;99.90;;;;;;5097738;28;20522;-51
2022/08/26 03:54:01;;;;;;;28.33;15.73;;;21.50;99.90;;;;;;5092214;28;20048;-49
2022/08/26 03:56:29;;;;;;;27.08;14.88;;;21.50;99.90;;;;;;5094755;28;20407;-47
2022/08/26 03:58:56;;;;;;;27.08;15.27;;;21.50;99.90;;;;;;5095655;28;20082;-46
2022/08/26 04:01:23;;;;;;;27.45;14.43;;;21.40;99.90;;;;;;5101139;28;20079;-45
2022/08/26 04:03:58;;;;;;;34.13;15.05;;;21.50;99.90;;;;;;5095207;28;20104;-47
2022/08/26 04:06:25;;;;;;;25.80;14.63;;;21.40;99.90;;;;;;5113289;28;20091;-50
2022/08/26 04:08:54;;;;;;;24.55;14.52;;;21.40;99.90;;;;;;5095075;28;20048;-48
2022/08/26 04:11:21;;;;;;;23.92;13.77;;;21.40;99.90;;;;;;5092692;28;20052;-45
2022/08/26 04:13:50;;;;;;;23.05;13.27;;;21.50;99.90;;;;;;5074088;28;20083;-47
2022/08/26 04:16:17;;;;;;;28.88;14.13;;;21.50;99.90;;;;;;5074420;28;20087;-47
2022/08/26 04:18:43;;;;;;;27.30;13.80;;;21.40;99.90;;;;;;5092666;28;20040;-41
2022/08/26 04:21:11;;;;;;;21.02;12.82;;;21.50;99.90;;;;;;5091788;28;20052;-50
2022/08/26 04:23:38;;;;;;;26.77;13.35;;;21.40;99.90;;;;;;5074201;28;20052;-44
2022/08/26 04:26:05;;;;;;;25.90;12.68;;;21.40;99.90;;;;;;5091304;28;20048;-50
2022/08/26 04:28:32;;;;;;;28.38;14.02;;;21.40;99.90;;;;;;5091737;28;20139;-49
2022/08/26 04:31:00;;;;;;;23.10;13.60;;;21.40;99.90;;;;;;5076646;28;20143;-43
2022/08/26 04:33:27;;;;;;;24.85;12.85;;;21.30;99.90;;;;;;5094045;28;20109;-45
2022/08/26 04:35:59;;;;;;;25.45;12.90;;;21.30;99.90;;;;;;5094511;28;20127;-43
2022/08/26 04:38:26;;;;;;;26.92;12.38;;;21.30;99.90;;;;;;5079277;28;20460;-45
2022/08/26 04:40:53;;;;;;;23.98;13.25;;;21.20;99.90;;;;;;5095169;28;20051;-42
2022/08/26 04:43:19;;;;;;;25.52;12.93;;;21.20;99.90;;;;;;5094151;28;20143;-47
2022/08/26 04:45:46;;;;;;;26.23;11.98;;;21.20;99.90;;;;;;5094605;28;20140;-49
2022/08/26 04:48:14;;;;;;;24.33;11.02;;;21.20;99.90;;;;;;5095252;28;20562;-47
2022/08/26 04:50:41;;;;;;;23.73;10.35;;;21.20;99.90;;;;;;5076719;28;20055;-47
2022/08/26 04:53:08;;;;;;;23.55;11.10;;;21.20;99.90;;;;;;5082908;28;20063;-47
2022/08/26 04:55:35;;;;;;;20.80;10.55;;;21.30;99.90;;;;;;5095762;28;20464;-45
2022/08/26 04:58:02;;;;;;;23.38;10.52;;;21.20;99.90;;;;;;5094048;28;20056;-38
2022/08/26 05:00:28;;;;;;;21.38;10.57;;;21.20;99.90;;;;;;5077212;28;20063;-45
2022/08/26 05:02:55;;;;;;;22.75;10.95;;;21.20;99.90;;;;;;5100887;28;20040;-44
2022/08/26 05:05:23;;;;;;;32.53;12.50;;;21.20;99.90;;;;;;5097776;28;20052;-43
2022/08/26 05:07:50;;;;;;;20.13;10.55;;;21.20;99.90;;;;;;5097747;28;20099;-45
2022/08/26 05:10:17;;;;;;;25.05;10.27;;;21.20;99.90;;;;;;5101365;28;20054;-45
2022/08/26 05:12:44;;;;;;;21.85;10.68;;;21.20;99.90;;;;;;5104974;28;20404;-45
2022/08/26 05:15:11;;;;;;;21.30;9.93;;;21.30;99.90;;;;;;5089793;28;20508;-49
2022/08/26 05:17:38;;;;;;;25.77;10.80;;;21.20;99.90;;;;;;5096556;28;20052;-47
2022/08/26 05:20:05;;;;;;;20.10;9.27;;;21.30;99.90;;;;;;5094494;28;20090;-46
2022/08/26 05:22:33;;;;;;;20.98;10.43;;;21.30;99.90;;;;;;5075536;28;20054;-45
2022/08/26 05:25:00;;;;;;;20.67;9.57;;;21.30;99.90;;;;;;5094518;28;20056;-44
2022/08/26 05:27:27;;;;;;;15.95;9.52;;;21.30;99.90;;;;;;5094703;28;20059;-48
2022/08/26 05:29:56;;;;;;;18.25;9.00;;;21.30;99.90;;;;;;5093311;28;20048;-42
2022/08/26 05:32:23;;;;;;;22.13;8.98;;;21.40;99.90;;;;;;5093770;28;20052;-44
2022/08/26 05:34:54;;;;;;;20.63;9.25;;;21.40;99.90;;;;;;5078867;28;20076;-44
2022/08/26 05:37:21;;;;;;;16.60;8.52;;;21.40;99.90;;;;;;5079234;28;20130;-45
2022/08/26 05:39:49;;;;;;;19.80;7.85;;;21.40;99.90;;;;;;5074522;28;20052;-45
2022/08/26 05:42:15;;;;;;;22.27;9.15;;;21.40;99.90;;;;;;5075181;28;20134;-45
2022/08/26 05:44:42;;;;;;;22.90;8.63;;;21.40;99.90;;;;;;5075715;28;20577;-46
2022/08/26 05:47:09;;;;;;;18.08;8.23;;;21.40;99.90;;;;;;5093766;28;20127;-47
2022/08/26 05:49:36;;;;;;;22.98;9.35;;;21.40;99.90;;;;;;5076864;28;20056;-44
2022/08/26 05:52:03;;;;;;;19.67;7.82;;;21.50;99.90;;;;;;5107203;28;20048;-44
2022/08/26 05:54:30;;;;;;;23.33;9.25;;;21.50;99.90;;;;;;5076669;28;20051;-44
2022/08/26 05:56:58;;;;;;;29.27;7.72;;;21.50;99.90;;;;;;5074834;28;20215;-44
2022/08/26 05:59:25;;;;;;;17.05;8.10;;;21.50;99.90;;;;;;5094125;28;20048;-45
2022/08/26 06:01:53;;;;;;;20.52;8.27;;;21.60;99.90;;;;;;5100338;28;20055;-45
2022/08/26 06:04:20;;;;;;;24.98;8.35;;;21.60;99.90;;;;;;5093161;28;20471;-45
2022/08/26 06:06:46;;;;;;;19.48;7.85;;;21.60;99.90;;;;;;5093954;28;20153;-46
2022/08/26 06:09:13;;;;;;;23.55;8.63;;;21.70;99.90;;;;;;5094111;28;20044;-45
2022/08/26 06:11:40;;;;;;;20.08;7.72;;;21.70;99.90;;;;;;5092939;28;20526;-47
2022/08/26 06:14:08;;;;;;;19.92;7.55;;;21.70;99.90;;;;;;5074924;28;20051;-45
2022/08/26 06:16:37;;;;;;;19.85;7.57;;;21.80;99.90;;;;;;5074750;28;20102;-40
2022/08/26 06:19:04;;;;;;;21.77;7.40;;;21.80;99.90;;;;;;5094056;28;20044;-40
2022/08/26 06:21:32;;;;;;;26.08;7.40;;;21.80;99.90;;;;;;5094148;28;20087;-46
2022/08/26 06:26:48;;;;;;;17.83;6.95;;;21.90;99.90;;;;;;5096485;28;20479;-43
2022/08/26 06:29:16;;;;;;;20.02;7.50;;;21.90;99.90;;;;;;5094299;28;20073;-45
2022/08/26 06:31:43;;;;;;;18.77;6.60;;;21.90;99.90;;;;;;5092004;28;20598;-43
2022/08/26 06:34:09;;;;;;;22.70;7.35;;;21.90;99.90;;;;;;5092369;28;20483;-47
2022/08/26 06:36:38;;;;;;;21.38;7.32;;;21.90;99.90;;;;;;5075260;28;20143;-46
2022/08/26 06:39:05;;;;;;;23.63;7.15;;;22.00;99.90;;;;;;5082709;28;20391;-35
2022/08/26 06:41:33;;;;;;;23.27;7.13;;;22.00;99.90;;;;;;5069077;28;20083;-44
2022/08/26 06:44:00;;;;;;;22.55;6.93;;;22.00;99.90;;;;;;5090607;28;20052;-43
2022/08/26 06:46:28;;;;;;;20.10;5.90;;;22.00;99.90;;;;;;5071594;28;20079;-45
2022/08/26 06:48:56;;;;;;;22.02;6.20;;;22.00;99.90;;;;;;5091078;28;20158;-48
2022/08/26 06:51:24;;;;;;;24.55;6.22;;;22.00;99.90;;;;;;5091535;28;20484;-45
2022/08/26 06:53:52;;;;;;;19.25;5.85;;;21.90;99.90;;;;;;5091503;28;20143;-45
2022/08/26 06:56:20;;;;;;;21.52;5.45;;;21.90;99.90;;;;;;5091334;28;20440;-42
2022/08/26 06:58:47;;;;;;;17.85;5.63;;;21.90;99.90;;;;;;5089731;28;20535;-44
2022/08/26 07:01:17;;;;;;;15.55;5.45;;;22.00;99.90;;;;;;5087867;28;20044;-43
2022/08/26 07:03:45;;;;;;;19.55;5.88;;;22.00;99.90;;;;;;5086004;28;20461;-42
2022/08/26 07:06:12;;;;;;;22.67;5.40;;;22.00;99.90;;;;;;5086170;28;20128;-47
2022/08/26 07:08:39;;;;;;;20.40;6.00;;;22.10;99.90;;;;;;5092445;28;20048;-46
2022/08/26 07:11:06;;;;;;;12.93;4.50;;;22.10;99.90;;;;;;5091858;28;20090;-45
2022/08/26 07:13:35;;;;;;;19.27;5.38;;;22.10;99.90;;;;;;5092159;28;20136;-45
2022/08/26 07:16:03;;;;;;;16.38;5.03;;;22.10;99.90;;;;;;5073349;28;20076;-43
2022/08/26 07:18:30;;;;;;;23.60;5.60;;;22.10;99.90;;;;;;5072818;28;20062;-47
2022/08/26 07:20:58;;;;;;;16.55;4.35;;;22.10;99.90;;;;;;5090747;28;20589;-43
2022/08/26 07:23:24;;;;;;;20.40;6.60;;;22.10;99.90;;;;;;5073557;28;20080;-41
2022/08/26 07:25:51;;;;;;;17.30;5.43;;;22.10;99.90;;;;;;5091255;28;20079;-44
2022/08/26 07:28:18;;;;;;;16.73;4.95;;;22.10;99.90;;;;;;5091663;28;20406;-47
2022/08/26 07:30:45;;;;;;;18.50;5.25;;;22.10;99.90;;;;;;5100927;28;20048;-45
2022/08/26 07:33:12;;;;;;;17.75;4.53;;;22.20;99.90;;;;;;5098329;28;20083;-44
2022/08/26 07:35:39;;;;;;;19.90;4.82;;;22.10;99.90;;;;;;5091069;28;20058;-45
2022/08/26 07:38:07;;;;;;;17.05;3.97;;;22.10;99.90;;;;;;5091546;28;20051;-47
2022/08/26 07:40:34;;;;;;;18.75;3.95;;;22.10;99.90;;;;;;5091483;28;20091;-45
2022/08/26 07:43:00;;;;;;;15.95;4.18;;;22.10;99.90;;;;;;5074993;28;20080;-46
2022/08/26 07:45:27;;;;;;;15.65;4.20;;;22.00;99.90;;;;;;5059527;28;20138;-45
2022/08/26 07:47:54;;;;;;;16.83;4.93;;;22.00;99.90;;;;;;5073407;28;20462;-46
2022/08/26 07:50:21;;;;;;;21.27;4.90;;;22.00;99.90;;;;;;5091538;28;20048;-44
2022/08/26 07:52:48;;;;;;;12.50;4.20;;;22.00;99.90;;;;;;5089673;28;20040;-40
2022/08/26 07:55:17;;;;;;;15.95;4.05;;;22.00;99.90;;;;;;5090650;28;20044;-50
2022/08/26 07:57:44;;;;;;;15.77;4.30;;;22.00;99.90;;;;;;5088700;28;20499;-45
2022/08/26 08:00:12;;;;;;;16.10;3.90;;;22.10;99.90;;;;;;5073231;28;20095;-50
2022/08/26 08:02:39;;;;;;;16.20;4.10;;;22.10;99.90;;;;;;5073176;28;20044;-48
2022/08/26 08:05:06;;;;;;;15.18;3.78;;;22.10;99.90;;;;;;5075897;28;20060;-49
2022/08/26 08:07:33;;;;;;;15.45;3.75;;;22.10;99.90;;;;;;5093232;28;20135;-46
2022/08/26 08:10:00;;;;;;;18.23;3.60;;;22.10;99.90;;;;;;5090013;28;20079;-48
2022/08/26 08:12:28;;;;;;;14.68;3.10;;;22.10;99.90;;;;;;5076590;28;20487;-46
2022/08/26 08:14:54;;;;;;;11.70;3.10;;;22.10;99.90;;;;;;5074593;28;20135;-46
2022/08/26 08:17:21;;;;;;;15.68;2.83;;;22.10;99.90;;;;;;5094211;28;20048;-44
2022/08/26 08:19:48;;;;;;;8.05;2.38;;;22.10;99.80;;;;;;5076056;28;20143;-46
2022/08/26 08:22:16;;;;;;;12.52;2.70;;;22.10;99.80;;;;;;5074697;28;20134;-44
2022/08/26 08:24:43;;;;;;;17.52;3.00;;;22.10;99.70;;;;;;5093706;28;20056;-48
2022/08/26 08:27:10;;;;;;;11.57;2.70;;;22.10;99.80;;;;;;5092436;28;20122;-50
2022/08/26 08:29:38;;;;;;;12.63;2.50;;;22.10;99.50;;;;;;5095378;28;20055;-46
2022/08/26 08:32:05;;;;;;;16.15;2.42;;;22.10;99.60;;;;;;5097610;28;20131;-49
2022/08/26 08:34:31;;;;;;;14.77;2.78;;;22.20;99.70;;;;;;5095031;28;20142;-46
2022/08/26 08:36:58;;;;;;;17.67;3.58;;;22.20;99.60;;;;;;5084888;28;20136;-49
2022/08/26 08:39:25;;;;;;;11.88;2.50;;;22.20;99.60;;;;;;5067829;28;20135;-45
2022/08/26 08:41:59;;;;;;;18.63;2.80;;;22.20;99.60;;;;;;5106767;28;20058;-45
2022/08/26 08:44:26;;;;;;;13.18;2.95;;;22.30;99.60;;;;;;5095624;28;20048;-44
2022/08/26 08:46:56;;;;;;;13.07;2.55;;;22.30;99.50;;;;;;5075388;28;20131;-46
2022/08/26 08:49:24;;;;;;;12.52;2.40;;;22.30;99.30;;;;;;5095408;28;20540;-50
2022/08/26 08:51:54;;;;;;;10.80;2.58;;;22.40;99.30;;;;;;5096190;28;20059;-49
2022/08/26 08:54:21;;;;;;;16.88;2.42;;;22.40;99.20;;;;;;5075525;28;20139;-46
2022/08/26 08:56:51;;;;;;;12.98;2.60;;;22.40;99.30;;;;;;5085298;28;20127;-50
2022/08/26 08:59:19;;;;;;;12.97;2.40;;;22.40;99.20;;;;;;5098981;28;20046;-45
2022/08/26 09:02:01;;;;;;;11.80;2.42;;;22.40;99.10;;;;;;5092061;28;20048;-51
2022/08/26 09:04:34;;;;;;;;;;;22.40;98.80;;;;;;5094741;28;20048;-44
2022/08/26 09:07:02;;;;;;;9.00;2.22;;;22.30;98.70;;;;;;5093563;28;20336;-46
2022/08/26 09:12:23;;;;;;;13.73;2.25;;;22.30;98.90;;;;;;5093527;28;20428;-47
2022/08/26 09:14:50;;;;;;;10.73;1.90;;;22.40;98.90;;;;;;5094586;28;20051;-37
2022/08/26 09:17:21;;;;;;;11.52;1.77;;;22.40;98.80;;;;;;5092642;28;20091;-48
2022/08/26 09:19:51;;;;;;;11.25;2.63;;;22.40;98.50;;;;;;5094438;28;20072;-44
2022/08/26 09:22:28;;;;;;;14.20;2.63;;;22.50;98.50;;;;;;5092609;28;20461;-47
2022/08/26 09:24:55;;;;;;;13.57;2.10;;;22.50;98.40;;;;;;5095746;28;20138;-46
2022/08/26 09:27:36;;;;;;;15.98;2.63;;;22.50;98.40;;;;;;5091755;28;20048;-50
2022/08/26 09:30:04;;;;;;;13.60;2.58;;;22.50;98.20;;;;;;5092208;28;20526;-43
2022/08/26 09:32:33;;;;;;;10.10;1.92;;;22.50;98.30;;;;;;5071040;28;20480;-46
2022/08/26 09:35:01;;;;;;;12.07;2.50;;;22.60;98.20;;;;;;5077783;28;20050;-45
2022/08/26 09:37:40;;;;;;;8.52;2.15;;;22.60;98.20;;;;;;5074411;28;20127;-48
2022/08/26 09:40:22;;;;;;;13.55;2.47;;;22.70;98.00;;;;;;5086329;28;20440;-47
2022/08/26 09:43:05;;;;;;;33.75;5.25;;;22.70;97.90;;;;;;5084667;28;20127;-46
2022/08/26 09:45:32;;;;;;;12.55;2.20;;;22.80;98.00;;;;;;5076269;28;20046;-50
2022/08/26 09:48:00;;;;;;;15.60;2.75;;;22.80;97.90;;;;;;5101500;28;20079;-46
2022/08/26 09:50:28;;;;;;;13.25;2.38;;;22.90;97.70;;;;;;5073484;28;20470;-43
2022/08/26 09:53:05;;;;;;;13.10;1.77;;;23.00;97.60;;;;;;5092423;28;20091;-49
2022/08/26 09:55:31;;;;;;;12.30;2.33;;;23.00;97.50;;;;;;5083142;28;20123;-49
2022/08/26 09:57:58;;;;;;;12.73;2.38;;;23.00;97.30;;;;;;5096150;28;20071;-47
2022/08/26 10:00:31;;;;;;;11.45;2.17;;;23.00;97.20;;;;;;5100363;28;20113;-47
2022/08/26 10:02:59;;;;;;;8.65;2.25;;;23.10;97.10;;;;;;5068911;28;20094;-42
2022/08/26 10:05:36;;;;;;;13.65;2.55;;;23.10;97.10;;;;;;5074683;28;20123;-48
2022/08/26 10:08:20;;;;;;;10.13;2.03;;;23.10;96.90;;;;;;5088994;28;20565;-47
2022/08/26 10:10:47;;;;;;;11.32;2.22;;;23.20;96.90;;;;;;5091907;28;20048;-47
2022/08/26 10:13:16;;;;;;;11.38;2.38;;;23.20;96.90;;;;;;5093063;28;20079;-46
2022/08/26 10:15:44;;;;;;;12.05;2.20;;;23.30;96.90;;;;;;5092202;28;20079;-48
2022/08/26 10:18:14;;;;;;;12.57;2.15;;;23.30;96.90;;;;;;5092103;28;20052;-40
2022/08/26 10:20:52;;;;;;;10.75;2.25;;;23.40;96.70;;;;;;5087825;28;20377;-45
2022/08/26 10:23:20;;;;;;;7.70;2.00;;;23.50;96.50;;;;;;5091864;28;20130;-45
2022/08/26 10:25:48;;;;;;;12.63;2.45;;;23.50;96.40;;;;;;5089537;28;20046;-48
2022/08/26 10:28:20;;;;;;;11.27;2.85;;;23.50;96.30;;;;;;5069141;28;20532;-47
2022/08/26 10:30:50;;;;;;;12.93;2.40;;;23.50;96.10;;;;;;4999160;28;20098;-50
2022/08/26 10:33:19;;;;;;;13.43;2.47;;;23.50;96.20;;;;;;5052945;28;20513;-47
2022/08/26 10:35:50;;;;;;;8.98;1.92;;;23.60;96.10;;;;;;5068343;28;20579;-51
2022/08/26 10:38:18;;;;;;;14.13;2.53;;;23.60;96.00;;;;;;5053537;28;20048;-47
2022/08/26 10:40:50;;;;;;;15.90;2.35;;;23.70;95.90;;;;;;5055340;28;20084;-47
2022/08/26 10:43:19;;;;;;;10.90;2.70;;;23.70;95.70;;;;;;5069484;28;20040;-50
2022/08/26 10:45:47;;;;;;;13.73;2.28;;;23.70;95.70;;;;;;5077688;28;20043;-45
2022/08/26 10:48:17;;;;;;;9.07;2.60;;;23.80;95.70;;;;;;5050677;28;20049;-45
2022/08/26 10:50:46;;;;;;;12.55;2.60;;;23.90;95.70;;;;;;5068277;28;20127;-48
2022/08/26 10:53:16;;;;;;;11.45;2.45;;;23.90;95.50;;;;;;5075483;28;20072;-50
2022/08/26 10:55:46;;;;;;;10.68;2.08;;;24.00;95.50;;;;;;5072148;28;20102;-49
2022/08/26 11:01:44;;;;;;;12.73;2.35;;;24.00;95.00;;;;;;4953585;22;20473;-43
2022/08/26 11:04:20;;;;;;;12.35;2.03;;;23.90;95.20;;;;;;4991089;28;20127;-45
2022/08/26 11:06:48;;;;;;;10.63;2.25;;;23.80;95.20;;;;;;4905749;23;20075;-45
2022/08/26 11:09:42;;;;;;;10.73;2.03;;;23.80;95.10;;;;;;5027721;28;20045;-50
2022/08/26 11:12:09;;;;;;;8.63;1.75;;;23.80;95.10;;;;;;5027599;28;20042;-47
2022/08/26 11:14:37;;;;;;;14.02;2.78;;;23.70;95.30;;;;;;5010255;28;20099;-44
2022/08/26 11:17:11;;;;;;;9.20;1.83;;;23.60;95.30;;;;;;5012265;28;20042;-50
2022/08/26 11:19:57;;;;;;;12.30;2.00;;;23.60;95.30;;;;;;5013257;28;20097;-47
2022/08/26 11:22:26;;;;;;;12.15;2.55;;;23.50;95.40;;;;;;5013574;28;20120;-47
2022/08/26 11:25:02;;;;;;;14.45;2.08;;;23.50;95.60;;;;;;5011304;28;20162;-51
2022/08/26 11:30:02;;;;;;;11.05;1.92;;;23.40;95.40;;;;;;4856220;22;20502;-47
2022/08/26 11:32:47;;;;;;;10.50;2.50;;;23.40;95.60;;;;;;4999709;28;20086;-50
2022/08/26 11:35:47;;;;;;;11.05;2.00;;;23.40;95.50;;;;;;4874073;22;20078;-50
2022/08/26 11:38:22;;;;;;;11.40;2.20;;;23.40;95.60;;;;;;5012285;28;20060;-51
2022/08/26 11:40:56;;;;;;;7.60;1.70;;;23.30;95.70;;;;;;5031709;28;20152;-50
2022/08/26 11:43:24;;;;;;;11.23;1.92;;;23.30;95.70;;;;;;5033460;28;20132;-50
2022/08/26 11:45:59;;;;;;;9.63;1.50;;;23.30;95.70;;;;;;4853346;22;20592;-48
2022/08/26 11:48:29;;;;;;;15.07;2.40;;;23.30;95.70;;;;;;5023845;28;20077;-47
2022/08/26 11:50:57;;;;;;;8.85;1.88;;;23.30;95.80;;;;;;5014159;28;20426;-48
2022/08/26 11:53:25;;;;;;;9.50;2.05;;;23.20;95.70;;;;;;5022374;28;20552;-50
2022/08/26 11:55:53;;;;;;;10.43;1.80;;;23.20;95.80;;;;;;5028773;28;20565;-47
2022/08/26 11:58:20;;;;;;;11.68;1.90;;;23.30;95.80;;;;;;5029575;28;20056;-50
2022/08/26 12:00:51;;;;;;;12.77;2.15;;;23.20;95.80;;;;;;5030254;28;20136;-50
2022/08/26 12:03:19;;;;;;;9.70;1.95;;;23.20;95.90;;;;;;5030732;28;20490;-46
2022/08/26 12:05:47;;;;;;;9.13;1.90;;;23.20;96.00;;;;;;5010453;28;20089;-48
2022/08/26 12:08:17;;;;;;;12.52;2.45;;;23.20;96.00;;;;;;5030166;28;20045;-49
2022/08/26 12:10:45;;;;;;;10.20;2.42;;;23.20;95.90;;;;;;5030541;28;20137;-49
2022/08/26 12:13:19;;;;;;;10.82;1.73;;;23.30;96.00;;;;;;5031445;28;20497;-49
2022/08/26 12:15:51;;;;;;;8.48;1.60;;;23.30;95.80;;;;;;5012182;28;20136;-47
2022/08/26 12:18:20;;;;;;;12.98;1.73;;;23.40;95.90;;;;;;5013425;28;20048;-47
2022/08/26 12:20:50;;;;;;;8.68;1.65;;;23.30;96.00;;;;;;5012723;28;20140;-49
2022/08/26 12:23:21;;;;;;;11.95;1.67;;;23.30;96.40;;;;;;5029473;28;20044;-51
2022/08/26 12:25:50;;;;;;;6.50;1.40;;;23.30;96.30;;;;;;5030446;28;20060;-50
2022/08/26 12:28:17;;;;;;;8.90;1.60;;;23.30;96.60;;;;;;5010062;28;20049;-47
2022/08/26 12:30:58;;;;;;;8.77;1.83;;;23.20;96.40;;;;;;5020315;28;20133;-50
2022/08/26 12:33:25;;;;;;;5.53;1.30;;;23.30;96.40;;;;;;5029060;28;20077;-50
2022/08/26 12:35:52;;;;;;;7.95;1.40;;;23.30;96.70;;;;;;5027351;28;20045;-43
2022/08/26 12:38:19;;;;;;;6.50;1.40;;;23.40;96.50;;;;;;5031091;28;20077;-46
2022/08/26 12:40:48;;;;;;;12.85;1.63;;;23.50;96.20;;;;;;5033445;28;20068;-48
2022/08/26 12:43:38;;;;;;;9.85;1.60;;;23.50;96.50;;;;;;5013058;28;20482;-49
2022/08/26 12:46:05;;;;;;;10.35;1.52;;;23.40;96.40;;;;;;5009452;28;20486;-47
2022/08/26 12:48:33;;;;;;;7.72;1.58;;;23.30;96.70;;;;;;5031229;28;20049;-45
2022/08/26 12:51:00;;;;;;;4.93;1.40;;;23.30;96.80;;;;;;5031673;28;20054;-50
2022/08/26 12:53:27;;;;;;;11.43;1.75;;;23.20;96.80;;;;;;5034018;28;20505;-44
2022/08/26 12:55:55;;;;;;;8.55;1.58;;;23.20;96.80;;;;;;5033426;28;20628;-50
2022/08/26 12:58:27;;;;;;;4.70;1.33;;;23.10;96.80;;;;;;5032818;28;20077;-47